Time;durP1;ratioP1;P1;durP2;ratioP2;P2;SDS_P1;SDS_P2;PMS_P1;PMS_P2;Temp;Humidity;BMP_temperature;BMP_pressure;BME280_temperature;BME280_humidity;BME280_pressure;Samples;Min_cycle;Max_cycle;Signal;HPM_P1;HPM_P2
2022/08/24 00:01:02;;;;;;;33.65;30.02;;;18.80;99.90;;;;;;5043325;28;20291;-86
2022/08/24 00:03:28;;;;;;;33.95;30.25;;;18.80;99.90;;;;;;5041531;28;20048;-86
2022/08/24 00:05:54;;;;;;;33.83;29.50;;;18.70;99.90;;;;;;5038288;28;20050;-86
2022/08/24 00:08:20;;;;;;;32.05;28.83;;;18.70;99.90;;;;;;5042889;28;20052;-87
2022/08/24 00:10:46;;;;;;;34.10;30.05;;;18.70;99.90;;;;;;5039988;28;20409;-86
2022/08/24 00:13:12;;;;;;;35.10;31.02;;;18.60;99.90;;;;;;5046229;28;20041;-86
2022/08/24 00:15:38;;;;;;;35.47;31.23;;;18.60;99.90;;;;;;5046940;28;20513;-88
2022/08/24 00:18:04;;;;;;;36.28;31.10;;;18.50;99.90;;;;;;5045429;28;20047;-86
2022/08/24 00:20:31;;;;;;;33.70;30.10;;;18.50;99.90;;;;;;5042835;28;20452;-86
2022/08/24 00:22:57;;;;;;;36.88;30.05;;;18.50;99.90;;;;;;5021687;28;20132;-87
2022/08/24 00:25:23;;;;;;;34.08;30.40;;;18.50;99.90;;;;;;5046596;28;20145;-86
2022/08/24 00:27:48;;;;;;;37.10;32.45;;;18.40;99.90;;;;;;5028788;28;20495;-87
2022/08/24 00:30:17;;;;;;;39.90;32.67;;;18.40;99.90;;;;;;5035889;28;20036;-86
2022/08/24 00:32:45;;;;;;;36.05;32.10;;;18.40;99.90;;;;;;5052598;28;20045;-86
2022/08/24 00:35:13;;;;;;;35.85;31.38;;;18.40;99.90;;;;;;5051241;28;20041;-86
2022/08/24 00:37:39;;;;;;;40.47;32.17;;;18.30;99.90;;;;;;5040835;28;20160;-86
2022/08/24 00:40:10;;;;;;;37.78;33.70;;;18.30;99.90;;;;;;5046526;28;20045;-87
2022/08/24 00:42:39;;;;;;;40.75;33.95;;;18.30;99.90;;;;;;5019021;28;20049;-87
2022/08/24 00:45:08;;;;;;;39.10;34.47;;;18.20;99.90;;;;;;5040338;28;20037;-91
2022/08/24 00:47:50;;;;;;;43.72;34.53;;;18.20;99.90;;;;;;5042746;28;20048;-87
2022/08/24 00:50:22;;;;;;;40.38;33.53;;;18.20;99.90;;;;;;5042506;28;20048;-87
2022/08/24 00:52:58;;;;;;;41.42;32.60;;;18.10;99.90;;;;;;5045291;28;20563;-87
2022/08/24 00:55:35;;;;;;;36.35;32.40;;;18.10;99.90;;;;;;5061453;28;20124;-87
2022/08/24 00:58:07;;;;;;;37.53;33.60;;;18.10;99.90;;;;;;5038759;28;20057;-87
2022/08/24 01:00:39;;;;;;;40.42;34.00;;;18.10;99.90;;;;;;5058220;28;20410;-88
2022/08/24 01:03:07;;;;;;;42.72;35.20;;;18.10;99.90;;;;;;5043568;28;20073;-87
2022/08/24 01:05:35;;;;;;;41.15;35.88;;;18.00;99.90;;;;;;5048482;28;20088;-87
2022/08/24 01:08:04;;;;;;;41.20;35.88;;;18.00;99.90;;;;;;5038511;28;20164;-87
2022/08/24 01:10:35;;;;;;;43.17;36.13;;;18.00;99.90;;;;;;5038733;28;20399;-88
2022/08/24 01:13:04;;;;;;;40.30;35.58;;;18.00;99.90;;;;;;5049797;28;20340;-89
2022/08/24 01:15:36;;;;;;;42.28;35.70;;;18.00;99.90;;;;;;5042370;28;20049;-87
2022/08/24 01:20:58;;;;;;;38.28;34.03;;;17.90;99.90;;;;;;5036566;28;20056;-87
2022/08/24 01:23:26;;;;;;;42.42;36.65;;;17.90;99.90;;;;;;5043252;28;20095;-87
2022/08/24 01:25:52;;;;;;;42.50;37.08;;;17.90;99.90;;;;;;5038606;28;20052;-87
2022/08/24 01:28:20;;;;;;;43.85;36.50;;;17.90;99.90;;;;;;5029003;28;20041;-88
2022/08/24 01:30:46;;;;;;;47.65;37.80;;;17.80;99.90;;;;;;5038205;28;20041;-88
2022/08/24 01:33:22;;;;;;;46.08;38.75;;;17.80;99.90;;;;;;5043803;28;20490;-90
2022/08/24 01:35:48;;;;;;;49.25;39.83;;;17.80;99.90;;;;;;5046651;28;20049;-88
2022/08/24 01:38:15;;;;;;;49.22;39.25;;;17.80;99.90;;;;;;5044858;28;20099;-88
2022/08/24 01:40:49;;;;;;;50.55;37.80;;;17.70;99.90;;;;;;5046936;28;20711;-88
2022/08/24 01:43:16;;;;;;;44.75;37.00;;;17.70;99.90;;;;;;5051002;28;20441;-88
2022/08/24 01:45:43;;;;;;;46.13;38.95;;;17.70;99.90;;;;;;5048137;28;20455;-90
2022/08/24 01:48:09;;;;;;;47.47;39.17;;;17.70;99.90;;;;;;5040449;28;20499;-88
2022/08/24 01:50:34;;;;;;;44.97;38.80;;;17.70;99.90;;;;;;5037973;28;20079;-87
2022/08/24 01:53:03;;;;;;;43.70;36.90;;;17.70;99.90;;;;;;5044235;28;20056;-87
2022/08/24 01:55:29;;;;;;;43.58;37.55;;;17.60;99.90;;;;;;5041859;28;20052;-88
2022/08/24 01:57:56;;;;;;;44.95;37.88;;;17.60;99.90;;;;;;5036750;28;20494;-88
2022/08/24 02:00:21;;;;;;;43.70;37.03;;;17.60;99.90;;;;;;5051922;28;20049;-88
2022/08/24 02:02:47;;;;;;;43.78;34.95;;;17.60;99.90;;;;;;5043439;28;20041;-88
2022/08/24 02:05:15;;;;;;;40.13;35.72;;;17.50;99.90;;;;;;5044042;28;20509;-88
2022/08/24 02:07:41;;;;;;;40.58;36.17;;;17.60;99.90;;;;;;5036168;28;20046;-88
2022/08/24 02:10:10;;;;;;;43.58;36.33;;;17.50;99.90;;;;;;5041330;28;20041;-88
2022/08/24 02:12:37;;;;;;;45.63;35.47;;;17.50;99.90;;;;;;5043960;28;20049;-90
2022/08/24 02:15:06;;;;;;;40.25;35.35;;;17.50;99.90;;;;;;5046557;28;20050;-89
2022/08/24 02:17:33;;;;;;;42.67;35.38;;;17.50;99.90;;;;;;5042342;28;20140;-88
2022/08/24 02:19:59;;;;;;;42.72;37.40;;;17.50;99.90;;;;;;5033485;28;20474;-88
2022/08/24 02:22:25;;;;;;;45.35;36.55;;;17.50;99.90;;;;;;5042013;28;20120;-87
2022/08/24 02:24:51;;;;;;;42.50;36.03;;;17.40;99.90;;;;;;5041186;28;20041;-88
2022/08/24 02:27:16;;;;;;;40.45;35.10;;;17.50;99.90;;;;;;5040002;28;20041;-88
2022/08/24 02:29:42;;;;;;;43.80;36.20;;;17.40;99.90;;;;;;5046432;28;20566;-91
2022/08/24 02:32:08;;;;;;;50.83;38.83;;;17.40;99.90;;;;;;5047556;28;20047;-88
2022/08/24 02:34:34;;;;;;;41.42;36.47;;;17.40;99.90;;;;;;5045665;28;20486;-88
2022/08/24 02:37:00;;;;;;;41.97;36.72;;;17.40;99.90;;;;;;5043773;28;20116;-88
2022/08/24 02:39:26;;;;;;;44.78;36.45;;;17.40;99.90;;;;;;5031983;28;20538;-87
2022/08/24 02:41:52;;;;;;;43.45;36.15;;;17.30;99.90;;;;;;5034035;28;20110;-88
2022/08/24 02:44:18;;;;;;;48.58;39.30;;;17.30;99.90;;;;;;5041252;28;20041;-87
2022/08/24 02:46:44;;;;;;;51.53;41.25;;;17.30;99.90;;;;;;5040913;28;20056;-87
2022/08/24 02:49:10;;;;;;;53.22;39.83;;;17.20;99.90;;;;;;5050570;28;20045;-88
2022/08/24 02:51:37;;;;;;;52.63;40.03;;;17.30;99.90;;;;;;5042478;28;20109;-87
2022/08/24 02:54:04;;;;;;;52.30;41.45;;;17.30;99.90;;;;;;5041196;28;20045;-87
2022/08/24 02:56:30;;;;;;;50.03;40.08;;;17.20;99.90;;;;;;5044349;28;20041;-87
2022/08/24 02:59:27;;;;;;;46.15;39.35;;;17.20;99.90;;;;;;5042266;28;20133;-87
2022/08/24 03:01:52;;;;;;;49.95;38.95;;;17.20;99.90;;;;;;5040712;28;20065;-88
2022/08/24 03:04:19;;;;;;;47.70;39.60;;;17.20;99.90;;;;;;5040955;28;20076;-88
2022/08/24 03:06:44;;;;;;;47.67;38.78;;;17.20;99.90;;;;;;5048289;28;20041;-88
2022/08/24 03:09:10;;;;;;;48.78;38.17;;;17.20;99.90;;;;;;5043818;28;20091;-87
2022/08/24 03:11:36;;;;;;;50.53;38.80;;;17.10;99.90;;;;;;5039039;28;20495;-88
2022/08/24 03:14:02;;;;;;;45.90;38.42;;;17.10;99.90;;;;;;5047615;28;20080;-87
2022/08/24 03:16:28;;;;;;;46.40;36.80;;;17.10;99.90;;;;;;5048203;28;20126;-87
2022/08/24 03:18:54;;;;;;;47.63;36.45;;;17.10;99.90;;;;;;5037871;28;20041;-87
2022/08/24 03:21:20;;;;;;;47.28;37.42;;;17.10;99.90;;;;;;5036679;28;20395;-88
2022/08/24 03:23:46;;;;;;;50.10;38.30;;;17.10;99.90;;;;;;5044018;28;20410;-87
2022/08/24 03:26:11;;;;;;;52.53;39.28;;;17.00;99.90;;;;;;5047609;28;20045;-88
2022/08/24 03:28:37;;;;;;;44.78;37.95;;;16.90;99.90;;;;;;5046102;28;20613;-90
2022/08/24 03:31:03;;;;;;;60.72;41.90;;;17.10;99.90;;;;;;5038275;28;20091;-87
2022/08/24 03:33:29;;;;;;;50.13;39.00;;;17.00;99.90;;;;;;5047718;28;20064;-87
2022/08/24 03:35:55;;;;;;;47.88;39.65;;;17.00;99.90;;;;;;5046115;28;20045;-88
2022/08/24 03:38:21;;;;;;;52.22;38.92;;;17.00;99.90;;;;;;5042321;28;20388;-87
2022/08/24 03:40:47;;;;;;;51.17;40.25;;;17.00;99.90;;;;;;5039312;28;20043;-87
2022/08/24 03:43:44;;;;;;;48.05;40.38;;;17.00;99.90;;;;;;5046014;28;20486;-87
2022/08/24 03:46:02;;;;;;;49.63;38.90;;;16.90;99.90;;;;;;5049577;28;20383;-88
2022/08/24 03:48:29;;;;;;;47.00;39.22;;;16.90;99.90;;;;;;5048811;28;20055;-87
2022/08/24 03:50:55;;;;;;;48.33;39.20;;;16.90;99.90;;;;;;5049175;28;20037;-88
2022/08/24 03:53:21;;;;;;;48.85;38.75;;;16.90;99.90;;;;;;5042073;28;20048;-87
2022/08/24 03:55:47;;;;;;;53.63;40.05;;;16.90;99.90;;;;;;5046849;28;20049;-88
2022/08/24 03:58:13;;;;;;;50.90;39.63;;;16.90;99.90;;;;;;5042503;28;20364;-87
2022/08/24 04:00:41;;;;;;;48.75;38.95;;;16.90;99.90;;;;;;5049968;28;20052;-91
2022/08/24 04:03:08;;;;;;;50.08;37.72;;;16.90;99.90;;;;;;5042671;28;20047;-88
2022/08/24 04:05:35;;;;;;;48.17;38.67;;;16.90;99.90;;;;;;5053451;28;20049;-87
2022/08/24 04:08:02;;;;;;;52.47;40.28;;;16.90;99.90;;;;;;5041493;28;20057;-87
2022/08/24 04:10:28;;;;;;;50.38;40.25;;;16.80;99.90;;;;;;5049323;28;20162;-87
2022/08/24 04:12:53;;;;;;;48.35;38.47;;;16.80;99.90;;;;;;5042138;28;20124;-88
2022/08/24 04:15:19;;;;;;;46.83;39.50;;;16.80;99.90;;;;;;5045494;28;20080;-88
2022/08/24 04:17:44;;;;;;;50.92;40.05;;;16.80;99.90;;;;;;5048338;28;20080;-89
2022/08/24 04:20:10;;;;;;;47.53;37.50;;;16.90;99.90;;;;;;5040892;28;20041;-88
2022/08/24 04:22:36;;;;;;;48.58;38.22;;;16.80;99.90;;;;;;5041315;28;20411;-87
2022/08/24 04:25:05;;;;;;;48.63;39.53;;;16.80;99.90;;;;;;5037082;28;20127;-87
2022/08/24 04:27:31;;;;;;;50.15;39.10;;;16.80;99.90;;;;;;5044850;28;20057;-88
2022/08/24 04:29:57;;;;;;;53.00;40.05;;;16.80;99.90;;;;;;5039381;28;20107;-87
2022/08/24 04:32:23;;;;;;;52.55;40.20;;;16.80;99.90;;;;;;5037054;28;20037;-87
2022/08/24 04:34:48;;;;;;;50.13;40.58;;;16.80;99.90;;;;;;5038370;28;20063;-88
2022/08/24 04:37:14;;;;;;;56.50;41.80;;;16.80;99.90;;;;;;5045293;28;20050;-87
2022/08/24 04:39:40;;;;;;;49.30;37.42;;;16.70;99.90;;;;;;5044557;28;20398;-87
2022/08/24 04:42:07;;;;;;;46.80;37.55;;;16.70;99.90;;;;;;5055594;28;20045;-87
2022/08/24 04:44:32;;;;;;;46.80;37.20;;;16.80;99.90;;;;;;5055285;28;20489;-86
2022/08/24 04:46:58;;;;;;;50.78;38.88;;;16.70;99.90;;;;;;5054437;28;20049;-86
2022/08/24 04:49:24;;;;;;;57.15;42.83;;;16.70;99.90;;;;;;5054910;28;20473;-87
2022/08/24 04:51:49;;;;;;;55.05;42.55;;;16.70;99.90;;;;;;5054903;28;20037;-87
2022/08/24 04:54:15;;;;;;;55.38;44.17;;;16.70;99.90;;;;;;5051913;28;20128;-87
2022/08/24 04:56:41;;;;;;;53.95;42.80;;;16.80;99.90;;;;;;5053501;28;20064;-87
2022/08/24 04:59:07;;;;;;;58.13;43.78;;;16.70;99.90;;;;;;5054892;28;20049;-87
2022/08/24 05:01:33;;;;;;;56.25;43.28;;;16.80;99.90;;;;;;5053356;28;20037;-87
2022/08/24 05:03:59;;;;;;;53.28;43.72;;;16.80;99.90;;;;;;5054679;28;20052;-87
2022/08/24 05:06:28;;;;;;;57.08;46.10;;;16.80;99.90;;;;;;5053783;28;20045;-87
2022/08/24 05:08:54;;;;;;;55.30;44.17;;;16.80;99.90;;;;;;5053439;28;20118;-88
2022/08/24 05:11:21;;;;;;;56.97;46.35;;;16.90;99.90;;;;;;5053850;28;20041;-88
2022/08/24 05:13:47;;;;;;;62.53;46.97;;;16.90;99.90;;;;;;5054753;28;20049;-88
2022/08/24 05:16:16;;;;;;;59.33;46.30;;;17.00;99.90;;;;;;5054672;28;20070;-88
2022/08/24 05:18:42;;;;;;;61.22;46.70;;;17.00;99.90;;;;;;5054624;28;20128;-88
2022/08/24 05:21:11;;;;;;;61.75;46.30;;;17.00;99.90;;;;;;5054367;28;20510;-87
2022/08/24 05:23:38;;;;;;;62.72;46.00;;;17.10;99.90;;;;;;5054833;28;20041;-88
2022/08/24 05:26:09;;;;;;;58.33;47.42;;;17.10;99.90;;;;;;5054347;28;20052;-87
2022/08/24 05:28:35;;;;;;;55.95;44.38;;;17.20;99.90;;;;;;5054612;28;20041;-88
2022/08/24 05:31:12;;;;;;;62.65;48.47;;;17.20;99.90;;;;;;5054508;28;20152;-88
2022/08/24 05:33:38;;;;;;;62.97;48.03;;;17.30;99.90;;;;;;5053830;28;20059;-88
2022/08/24 05:36:05;;;;;;;45.35;39.40;;;17.30;99.90;;;;;;5054307;28;20490;-88
2022/08/24 05:38:32;;;;;;;65.13;51.53;;;17.40;99.90;;;;;;5054366;28;20072;-87
2022/08/24 05:41:02;;;;;;;74.32;54.72;;;17.50;99.90;;;;;;5054351;28;20045;-88
2022/08/24 05:43:28;;;;;;;79.40;60.40;;;17.50;99.90;;;;;;5053391;28;20139;-87
2022/08/24 05:45:54;;;;;;;74.63;55.80;;;17.60;99.90;;;;;;5052987;28;20061;-87
2022/08/24 05:48:19;;;;;;;57.03;46.38;;;17.70;99.90;;;;;;5052937;28;20071;-87
2022/08/24 05:50:51;;;;;;;77.32;61.58;;;17.80;99.90;;;;;;5054135;28;20037;-87
2022/08/24 05:53:17;;;;;;;83.95;63.20;;;17.90;99.90;;;;;;5052394;28;20060;-88
2022/08/24 05:55:43;;;;;;;76.50;57.67;;;17.80;99.90;;;;;;5054414;28;20553;-88
2022/08/24 05:58:08;;;;;;;68.82;55.78;;;18.10;99.90;;;;;;5053047;28;20044;-87
2022/08/24 06:00:36;;;;;;;73.30;60.10;;;18.20;99.90;;;;;;5052948;28;20040;-87
2022/08/24 06:03:02;;;;;;;70.00;54.50;;;18.30;99.90;;;;;;5054071;28;20530;-86
2022/08/24 06:05:28;;;;;;;52.22;43.78;;;18.40;99.90;;;;;;5052779;28;20096;-86
2022/08/24 06:07:54;;;;;;;51.58;42.92;;;18.50;99.90;;;;;;5053857;28;20088;-85
2022/08/24 06:10:20;;;;;;;50.55;43.55;;;18.60;99.90;;;;;;5054069;28;20470;-86
2022/08/24 06:12:46;;;;;;;49.35;44.00;;;18.60;99.90;;;;;;5053443;28;20102;-85
2022/08/24 06:15:12;;;;;;;49.08;42.67;;;18.70;99.90;;;;;;5051450;28;20122;-87
2022/08/24 06:17:38;;;;;;;43.20;38.63;;;18.70;99.90;;;;;;5053399;28;20092;-90
2022/08/24 06:20:06;;;;;;;42.17;37.58;;;18.70;99.90;;;;;;5052927;28;20045;-87
2022/08/24 06:22:32;;;;;;;43.20;38.50;;;18.80;99.90;;;;;;5036373;28;20567;-88
2022/08/24 06:27:42;;;;;;;30.25;26.38;;;18.90;99.90;;;;;;5054743;28;20049;-86
2022/08/24 06:30:09;;;;;;;46.83;41.75;;;18.90;99.90;;;;;;5054852;28;20048;-87
2022/08/24 06:32:36;;;;;;;45.75;40.88;;;18.90;99.90;;;;;;5053793;28;20094;-89
2022/08/24 06:35:02;;;;;;;48.70;43.33;;;19.10;99.90;;;;;;5053672;28;20548;-86
2022/08/24 06:37:27;;;;;;;53.42;47.00;;;19.10;99.90;;;;;;5053271;28;20087;-85
2022/08/24 06:39:55;;;;;;;55.13;49.13;;;19.20;99.90;;;;;;5053368;28;20087;-86
2022/08/24 06:42:23;;;;;;;58.55;51.03;;;19.20;99.90;;;;;;5055459;28;20128;-85
2022/08/24 06:44:49;;;;;;;54.95;46.80;;;19.30;99.90;;;;;;5054179;28;20049;-86
2022/08/24 06:47:15;;;;;;;56.42;50.30;;;19.40;99.90;;;;;;5058660;28;20052;-88
2022/08/24 06:49:41;;;;;;;51.20;43.90;;;19.40;99.90;;;;;;5054698;28;20437;-86
2022/08/24 06:52:09;;;;;;;41.72;36.50;;;19.50;99.90;;;;;;5056620;28;20056;-86
2022/08/24 06:54:35;;;;;;;40.97;35.65;;;19.60;99.90;;;;;;5054185;28;20056;-86
2022/08/24 06:57:01;;;;;;;50.97;45.20;;;19.70;99.90;;;;;;5052153;28;20498;-88
2022/08/24 06:59:27;;;;;;;33.58;30.00;;;19.70;99.90;;;;;;5034845;28;20063;-86
2022/08/24 07:01:55;;;;;;;53.75;47.03;;;19.80;99.90;;;;;;5053194;28;20051;-86
2022/08/24 07:04:22;;;;;;;29.88;26.65;;;19.90;99.90;;;;;;5053049;28;20475;-86
2022/08/24 07:06:48;;;;;;;29.90;26.67;;;20.00;99.90;;;;;;5052983;28;20124;-87
2022/08/24 07:09:15;;;;;;;50.13;38.53;;;20.00;99.90;;;;;;5052557;28;20509;-86
2022/08/24 07:11:40;;;;;;;39.25;35.17;;;20.20;99.90;;;;;;5052789;28;20417;-85
2022/08/24 07:14:06;;;;;;;47.92;41.08;;;20.30;99.90;;;;;;5052710;28;20049;-85
2022/08/24 07:16:33;;;;;;;51.95;46.08;;;20.40;99.90;;;;;;5052534;28;20068;-85
2022/08/24 07:19:00;;;;;;;47.03;41.92;;;20.50;99.90;;;;;;5052247;28;20391;-85
2022/08/24 07:21:27;;;;;;;42.92;38.13;;;20.70;99.90;;;;;;5052897;28;20088;-86
2022/08/24 07:23:58;;;;;;;46.90;41.90;;;20.90;99.90;;;;;;5052606;28;20045;-89
2022/08/24 07:26:26;;;;;;;30.80;25.52;;;21.10;99.90;;;;;;5052460;28;20099;-85
2022/08/24 07:28:59;;;;;;;47.42;42.47;;;21.20;99.90;;;;;;5050818;28;20095;-86
2022/08/24 07:31:26;;;;;;;48.17;43.00;;;21.30;99.90;;;;;;5052840;28;20110;-85
2022/08/24 07:33:51;;;;;;;41.35;36.10;;;21.50;99.90;;;;;;5051425;28;20045;-86
2022/08/24 07:36:18;;;;;;;37.58;33.17;;;21.60;99.90;;;;;;5052501;28;20052;-86
2022/08/24 07:38:45;;;;;;;38.45;34.30;;;21.80;99.90;;;;;;5050927;28;20552;-85
2022/08/24 07:41:13;;;;;;;36.58;32.83;;;21.90;99.90;;;;;;5052520;28;20243;-84
2022/08/24 07:43:39;;;;;;;35.53;31.92;;;22.10;99.90;;;;;;5052188;28;20040;-87
2022/08/24 07:46:06;;;;;;;37.95;33.50;;;22.30;99.90;;;;;;5052677;28;20124;-86
2022/08/24 07:48:33;;;;;;;33.00;28.45;;;22.40;99.90;;;;;;5051614;28;20053;-89
2022/08/24 07:51:06;;;;;;;26.23;23.42;;;22.60;99.90;;;;;;5052294;28;20528;-86
2022/08/24 07:53:32;;;;;;;26.65;21.13;;;22.80;99.90;;;;;;5051134;28;20442;-85
2022/08/24 07:55:58;;;;;;;23.52;20.50;;;22.90;99.90;;;;;;5051501;28;20049;-86
2022/08/24 07:58:24;;;;;;;24.95;19.30;;;23.10;99.90;;;;;;5052187;28;20049;-86
2022/08/24 08:00:49;;;;;;;20.67;18.52;;;23.20;99.90;;;;;;5052438;28;20067;-86
2022/08/24 08:03:15;;;;;;;20.08;17.70;;;23.40;99.90;;;;;;5052572;28;20466;-86
2022/08/24 08:05:41;;;;;;;22.02;17.00;;;23.50;99.90;;;;;;5052373;28;20049;-90
2022/08/24 08:08:08;;;;;;;20.83;17.38;;;23.70;99.90;;;;;;5052339;28;20095;-86
2022/08/24 08:10:37;;;;;;;26.20;19.60;;;23.90;99.90;;;;;;5051445;28;20052;-86
2022/08/24 08:13:06;;;;;;;22.88;18.80;;;24.10;99.90;;;;;;5052041;28;20087;-87
2022/08/24 08:15:32;;;;;;;23.30;18.27;;;24.20;99.90;;;;;;5051197;28;20128;-85
2022/08/24 08:17:58;;;;;;;21.50;17.38;;;24.30;99.90;;;;;;5052023;28;20148;-89
2022/08/24 08:20:23;;;;;;;22.13;17.35;;;24.40;99.90;;;;;;5051620;28;20149;-85
2022/08/24 08:25:37;;;;;;;20.73;18.30;;;24.60;99.90;;;;;;5052123;28;20052;-86
2022/08/24 08:28:04;;;;;;;21.08;17.30;;;24.80;99.90;;;;;;5052247;28;20497;-84
2022/08/24 08:30:30;;;;;;;17.08;14.35;;;24.90;99.90;;;;;;5055962;28;20076;-85
2022/08/24 08:32:56;;;;;;;17.58;13.60;;;25.10;99.90;;;;;;5056211;28;20083;-83
2022/08/24 08:35:22;;;;;;;15.93;10.60;;;25.30;99.90;;;;;;5057932;28;20041;-86
2022/08/24 08:37:48;;;;;;;13.43;10.27;;;25.80;99.90;;;;;;5055860;28;20474;-88
2022/08/24 08:40:39;;;;;;;14.70;11.55;;;26.20;99.90;;;;;;5058306;28;20048;-86
2022/08/24 08:43:30;;;;;;;17.75;11.43;;;26.70;99.90;;;;;;5054884;28;20099;-85
2022/08/24 08:46:29;;;;;;;12.77;9.82;;;27.40;99.90;;;;;;5015598;28;20069;-84
2022/08/24 08:49:16;;;;;;;16.98;10.50;;;28.20;99.90;;;;;;5014877;28;20046;-87
2022/08/24 08:52:23;;;;;;;13.32;10.00;;;29.10;99.90;;;;;;5002567;28;20066;-85
2022/08/24 08:55:10;;;;;;;14.90;11.68;;;30.00;99.90;;;;;;5017106;28;20050;-85
2022/08/24 08:57:54;;;;;;;17.73;12.70;;;30.80;96.10;;;;;;5016931;28;20092;-87
2022/08/24 09:00:23;;;;;;;17.95;13.55;;;31.30;75.00;;;;;;4985422;28;20061;-86
2022/08/24 09:03:01;;;;;;;16.75;15.00;;;31.90;77.00;;;;;;5015314;28;20112;-83
2022/08/24 09:05:57;;;;;;;18.45;15.52;;;32.50;67.10;;;;;;5014061;28;20054;-86
2022/08/24 09:08:56;;;;;;;13.80;12.32;;;32.80;70.60;;;;;;4997706;28;20432;-85
2022/08/24 09:11:51;;;;;;;16.58;13.02;;;33.20;71.70;;;;;;5013990;28;20050;-84
2022/08/24 09:14:17;;;;;;;15.65;13.88;;;33.80;67.90;;;;;;4997419;28;20050;-85
2022/08/24 09:17:03;;;;;;;18.48;12.80;;;34.00;62.90;;;;;;5015301;28;20054;-85
2022/08/24 09:19:50;;;;;;;12.23;10.38;;;34.20;62.20;;;;;;4996925;28;20053;-90
2022/08/24 09:22:20;;;;;;;14.63;10.35;;;34.60;62.70;;;;;;5020406;28;20099;-88
2022/08/24 09:24:46;;;;;;;13.57;8.57;;;35.30;60.70;;;;;;5037525;28;20067;-85
2022/08/24 09:27:26;;;;;;;12.57;9.23;;;35.80;57.60;;;;;;5055335;28;20049;-86
2022/08/24 09:29:58;;;;;;;10.32;9.15;;;36.20;57.70;;;;;;5055275;28;20072;-85
2022/08/24 09:32:34;;;;;;;12.45;9.98;;;36.40;56.40;;;;;;5055334;28;20091;-86
2022/08/24 09:35:05;;;;;;;13.23;9.50;;;36.60;55.40;;;;;;5054563;28;20045;-86
2022/08/24 09:37:35;;;;;;;11.85;8.55;;;36.60;54.80;;;;;;5054169;28;20060;-85
2022/08/24 09:40:31;;;;;;;12.70;9.45;;;36.70;54.50;;;;;;5056297;28;20048;-86
2022/08/24 09:43:16;;;;;;;10.48;9.30;;;37.00;54.50;;;;;;5056138;28;20398;-85
2022/08/24 09:46:23;;;;;;;14.07;12.07;;;37.10;53.30;;;;;;5055111;28;20479;-85
2022/08/24 09:49:04;;;;;;;16.92;12.27;;;36.80;53.10;;;;;;5038262;28;20049;-86
2022/08/24 09:52:03;;;;;;;14.55;11.60;;;36.50;53.50;;;;;;5054749;28;20494;-86
2022/08/24 09:54:34;;;;;;;10.77;9.68;;;36.60;53.00;;;;;;5054253;28;20123;-86
2022/08/24 09:57:15;;;;;;;12.95;10.68;;;37.00;52.70;;;;;;5055546;28;20175;-85
2022/08/24 10:04:00;;;;;;;14.00;10.50;;;37.60;50.20;;;;;;5055017;28;20048;-85
2022/08/24 10:06:49;;;;;;;11.23;8.88;;;37.70;52.00;;;;;;5036964;28;20044;-87
2022/08/24 10:10:00;;;;;;;10.43;9.30;;;37.80;51.90;;;;;;5055109;28;20069;-86
2022/08/24 10:12:48;;;;;;;12.02;9.30;;;38.20;50.20;;;;;;4993278;28;20050;-86
2022/08/24 10:16:08;;;;;;;14.35;10.32;;;38.40;48.70;;;;;;4993368;28;20054;-85
2022/08/24 10:19:14;;;;;;;10.65;8.48;;;38.30;50.30;;;;;;4954814;29;20469;-86
2022/08/24 10:22:09;;;;;;;8.68;7.88;;;38.10;49.60;;;;;;4954654;29;20051;-84
2022/08/24 10:25:18;;;;;;;8.88;6.00;;;37.80;49.20;;;;;;4955255;29;20098;-85
2022/08/24 10:28:43;;;;;;;10.70;7.32;;;37.50;51.00;;;;;;4954487;29;20115;-85
2022/08/24 10:32:02;;;;;;;9.02;7.80;;;37.50;50.30;;;;;;4878754;29;20065;-85
2022/08/24 10:35:09;;;;;;;9.68;7.70;;;37.70;51.00;;;;;;4878672;29;20057;-86
2022/08/24 10:41:03;;;;;;;7.45;6.25;;;38.60;49.90;;;;;;4865225;29;20458;-85
2022/08/24 10:44:04;;;;;;;6.95;4.65;;;38.90;48.80;;;;;;4891545;29;20135;-86
2022/08/24 10:51:12;;;;;;;6.25;3.10;;;39.30;48.90;;;;;;4897227;29;20423;-85
2022/08/24 10:53:39;;;;;;;4.80;3.15;;;39.30;48.80;;;;;;4968444;28;20059;-86
2022/08/24 10:56:14;;;;;;;7.00;4.00;;;39.10;49.10;;;;;;4973282;28;20086;-86
2022/08/24 10:59:05;;;;;;;5.85;2.63;;;39.00;46.90;;;;;;4973020;28;20043;-86
2022/08/24 11:01:36;;;;;;;3.83;2.50;;;38.80;48.80;;;;;;4973424;28;20054;-85
2022/08/24 11:04:07;;;;;;;4.80;2.30;;;38.90;47.90;;;;;;4957330;28;20042;-85
2022/08/24 11:07:05;;;;;;;2.55;1.90;;;38.60;47.90;;;;;;5021001;28;20056;-85
2022/08/24 11:09:55;;;;;;;3.58;2.75;;;38.10;47.80;;;;;;5033941;28;20137;-86
2022/08/24 11:12:26;;;;;;;3.42;1.80;;;37.20;48.60;;;;;;5035160;28;20209;-90
2022/08/24 11:18:23;;;;;;;5.18;2.00;;;36.70;49.20;;;;;;5033997;28;20056;-86
2022/08/24 11:20:53;;;;;;;6.28;1.88;;;36.40;50.10;;;;;;5033678;28;20053;-85
2022/08/24 11:23:41;;;;;;;5.05;2.30;;;36.60;51.70;;;;;;5033761;28;20387;-85
2022/08/24 11:26:21;;;;;;;3.72;2.08;;;37.00;51.00;;;;;;5016199;28;20516;-86
2022/08/24 11:28:52;;;;;;;3.25;2.05;;;37.20;47.80;;;;;;5033366;28;20128;-86
2022/08/24 11:31:59;;;;;;;2.97;2.15;;;37.20;48.50;;;;;;5033492;28;20096;-86
2022/08/24 11:34:35;;;;;;;4.97;2.00;;;37.30;49.80;;;;;;5015072;28;20460;-87
2022/08/24 11:37:01;;;;;;;2.60;1.50;;;37.40;49.10;;;;;;5015619;28;20064;-86
2022/08/24 11:39:34;;;;;;;6.75;2.10;;;37.70;48.90;;;;;;5032967;28;20045;-86
2022/08/24 11:42:25;;;;;;;4.32;2.50;;;37.80;47.50;;;;;;5015410;28;20056;-87
2022/08/24 11:45:15;;;;;;;4.25;1.92;;;37.00;48.00;;;;;;5015986;28;20064;-85
2022/08/24 11:47:40;;;;;;;3.25;1.90;;;36.40;50.40;;;;;;5048430;28;20049;-86
2022/08/24 11:50:59;;;;;;;3.67;1.85;;;36.20;50.20;;;;;;5015289;28;20387;-86
2022/08/24 11:53:41;;;;;;;5.80;1.80;;;35.40;51.50;;;;;;5010848;28;20058;-87
2022/08/24 11:56:21;;;;;;;4.70;2.05;;;34.60;51.90;;;;;;5011227;28;20399;-86
2022/08/24 11:59:00;;;;;;;3.92;1.95;;;34.00;53.20;;;;;;5010633;28;20057;-86
2022/08/24 12:01:38;;;;;;;4.90;2.38;;;33.10;54.30;;;;;;5010847;28;20495;-85
2022/08/24 12:04:19;;;;;;;4.28;2.28;;;32.30;55.90;;;;;;4996803;28;20094;-86
2022/08/24 12:07:09;;;;;;;3.58;2.53;;;31.70;57.50;;;;;;5014802;28;20054;-85
2022/08/24 12:09:43;;;;;;;;;;;31.10;58.60;;;;;;5015228;28;20053;-84
2022/08/24 12:12:12;;;;;;;3.13;2.03;;;30.60;61.70;;;;;;5015153;28;20342;-87
2022/08/24 12:15:25;;;;;;;4.43;2.00;;;30.90;60.90;;;;;;4998656;28;20483;-84
2022/08/24 12:17:59;;;;;;;6.03;1.85;;;32.00;60.40;;;;;;4936869;29;20060;-85
2022/08/24 12:20:40;;;;;;;6.00;1.88;;;32.60;58.60;;;;;;4936915;29;20056;-86
2022/08/24 12:23:20;;;;;;;4.68;2.20;;;32.30;58.00;;;;;;4936445;29;20134;-87
2022/08/24 12:26:03;;;;;;;3.05;1.80;;;32.10;58.90;;;;;;4936744;29;20175;-85
2022/08/24 12:28:46;;;;;;;4.03;1.63;;;32.40;59.80;;;;;;4936924;29;20533;-85
2022/08/24 12:31:21;;;;;;;4.75;1.88;;;33.30;60.40;;;;;;4958935;28;20129;-87
2022/08/24 12:33:51;;;;;;;5.80;2.08;;;33.70;58.30;;;;;;4959006;28;20050;-88
2022/08/24 12:36:52;;;;;;;3.60;2.05;;;34.00;55.00;;;;;;4959402;28;20141;-85
2022/08/24 12:39:24;;;;;;;2.30;1.48;;;33.70;55.90;;;;;;4936348;29;20405;-87
2022/08/24 12:41:55;;;;;;;7.50;1.70;;;33.20;57.70;;;;;;4936148;29;20521;-85
2022/08/24 12:44:30;;;;;;;8.82;1.40;;;32.90;59.30;;;;;;4936725;29;20055;-85
2022/08/24 12:50:41;;;;;;;2.75;1.50;;;32.40;58.30;;;;;;5014020;28;20411;-87
2022/08/24 12:53:40;;;;;;;4.80;1.80;;;32.00;58.30;;;;;;4997536;28;20480;-85
2022/08/24 12:56:44;;;;;;;3.58;1.27;;;31.80;61.90;;;;;;5013666;28;20544;-86
2022/08/24 12:59:36;;;;;;;2.50;1.30;;;31.40;59.90;;;;;;4997194;28;20535;-86
2022/08/24 13:02:24;;;;;;;3.22;0.90;;;31.30;60.00;;;;;;4997874;28;20133;-85
2022/08/24 13:04:51;;;;;;;4.05;1.35;;;31.20;60.50;;;;;;5006636;28;20045;-85
2022/08/24 13:07:23;;;;;;;0.90;0.90;;;31.10;59.80;;;;;;4997156;28;20045;-85
2022/08/24 13:10:08;;;;;;;1.83;1.10;;;31.10;60.30;;;;;;5014403;28;20582;-86
2022/08/24 13:12:42;;;;;;;4.15;1.10;;;31.00;61.70;;;;;;5014076;28;20054;-85
2022/08/24 13:15:27;;;;;;;2.97;1.25;;;31.00;63.30;;;;;;4999636;28;20046;-85
2022/08/24 13:18:07;;;;;;;3.05;1.30;;;31.10;61.70;;;;;;5038033;28;20111;-86
2022/08/24 13:20:34;;;;;;;3.03;1.30;;;31.00;61.10;;;;;;5038162;28;20134;-85
2022/08/24 13:23:14;;;;;;;3.22;1.08;;;30.80;63.20;;;;;;5038080;28;20055;-86
2022/08/24 13:25:46;;;;;;;2.40;1.05;;;30.60;63.50;;;;;;5054947;28;20056;-89